Time;durP1;ratioP1;P1;durP2;ratioP2;P2;SDS_P1;SDS_P2;PMS_P1;PMS_P2;Temp;Humidity;BMP_temperature;BMP_pressure;BME280_temperature;BME280_humidity;BME280_pressure;Samples;Min_cycle;Max_cycle;Signal;HPM_P1;HPM_P2
2022/06/17 00:02:22;;;;;;;8.95;3.08;;;12.60;99.90;;;;;;7348835;32;20177;-60
2022/06/17 00:06:28;;;;;;;6.32;3.12;;;12.50;99.90;;;;;;7349064;32;20133;-62
2022/06/17 00:10:30;;;;;;;6.65;4.12;;;12.50;99.90;;;;;;7348105;32;20444;-61
2022/06/17 00:15:11;;;;;;;5.47;3.62;;;12.40;99.90;;;;;;7347922;32;20107;-61
2022/06/17 00:18:56;;;;;;;7.18;3.47;;;12.40;99.90;;;;;;7344559;32;20123;-61
2022/06/17 00:22:58;;;;;;;7.05;4.10;;;12.30;99.90;;;;;;7345923;32;20254;-60
2022/06/17 00:27:01;;;;;;;6.12;3.33;;;12.20;99.90;;;;;;7345685;32;20100;-60
2022/06/17 00:31:03;;;;;;;5.25;3.15;;;12.20;99.90;;;;;;7347407;32;20161;-60
2022/06/17 00:35:05;;;;;;;4.12;3.25;;;12.20;99.90;;;;;;7339853;32;20119;-61
2022/06/17 00:39:17;;;;;;;5.05;3.67;;;12.20;99.90;;;;;;7339109;32;20186;-63
2022/06/17 00:43:34;;;;;;;5.07;3.30;;;12.20;99.90;;;;;;7343798;32;20792;-60
2022/06/17 00:47:42;;;;;;;5.60;3.33;;;12.10;99.90;;;;;;7341492;32;20134;-60
2022/06/17 00:51:52;;;;;;;7.87;3.35;;;12.10;99.90;;;;;;7347851;32;20107;-61
2022/06/17 00:55:58;;;;;;;5.90;3.75;;;12.10;99.90;;;;;;7344989;32;20112;-62
2022/06/17 01:00:25;;;;;;;6.32;3.50;;;12.10;99.90;;;;;;7336815;32;20122;-60
2022/06/17 01:04:49;;;;;;;4.25;3.47;;;12.20;99.90;;;;;;7343534;32;20549;-61
2022/06/17 01:13:16;;;;;;;4.18;3.40;;;12.20;99.90;;;;;;7340360;32;20934;-60
2022/06/17 01:17:20;;;;;;;5.28;3.72;;;12.20;99.90;;;;;;7338802;32;20746;-61
2022/06/17 01:21:30;;;;;;;5.12;3.60;;;12.10;99.90;;;;;;7344712;32;20806;-60
2022/06/17 01:25:39;;;;;;;8.70;3.75;;;12.10;99.90;;;;;;7342978;32;20455;-60
2022/06/17 01:29:41;;;;;;;5.25;3.22;;;12.10;99.90;;;;;;7341254;32;20099;-60
2022/06/17 01:33:44;;;;;;;9.10;4.15;;;12.10;99.90;;;;;;7344401;32;20138;-61
2022/06/17 01:37:46;;;;;;;5.25;3.60;;;12.00;99.90;;;;;;7342126;32;20154;-61
2022/06/17 01:41:49;;;;;;;4.72;3.67;;;12.00;99.90;;;;;;7344685;32;20252;-61
2022/06/17 01:45:58;;;;;;;7.95;4.07;;;12.00;99.90;;;;;;7341110;32;20112;-60
2022/06/17 01:50:11;;;;;;;6.18;3.60;;;12.00;99.90;;;;;;7343706;32;20133;-58
2022/06/17 01:54:18;;;;;;;5.00;3.20;;;11.90;99.90;;;;;;7345133;32;20134;-58
2022/06/17 01:58:20;;;;;;;;;;;11.90;99.90;;;;;;7346467;32;20144;-58
2022/06/17 02:02:23;;;;;;;4.50;3.37;;;11.90;99.90;;;;;;7344475;32;19998;-58
2022/06/17 02:06:40;;;;;;;7.43;3.62;;;11.90;99.90;;;;;;7344690;32;20175;-61
2022/06/17 02:10:44;;;;;;;5.43;3.80;;;12.00;99.90;;;;;;7341887;32;20120;-61
2022/06/17 02:14:48;;;;;;;4.57;3.55;;;12.00;99.90;;;;;;7336634;32;20339;-61
2022/06/17 02:18:50;;;;;;;7.95;3.75;;;12.10;99.90;;;;;;7342036;32;20119;-60
2022/06/17 02:22:55;;;;;;;4.93;2.75;;;12.10;99.90;;;;;;7341531;32;20187;-60
2022/06/17 02:27:00;;;;;;;4.43;3.40;;;12.00;99.90;;;;;;7338571;32;20153;-61
2022/06/17 02:31:03;;;;;;;5.43;3.28;;;12.00;99.90;;;;;;7351744;32;20214;-61
2022/06/17 02:35:30;;;;;;;5.62;3.53;;;12.00;99.90;;;;;;7342558;32;20167;-61
2022/06/17 02:39:34;;;;;;;6.05;3.08;;;12.00;99.90;;;;;;7343629;32;20111;-59
2022/06/17 02:43:45;;;;;;;4.93;3.25;;;12.00;99.90;;;;;;7348280;32;20654;-58
2022/06/17 02:47:47;;;;;;;5.25;3.72;;;12.00;99.90;;;;;;7337203;32;20139;-58
2022/06/17 02:51:50;;;;;;;5.35;3.10;;;11.90;99.90;;;;;;7344906;32;20206;-58
2022/06/17 02:55:51;;;;;;;6.18;2.90;;;11.80;99.90;;;;;;7345690;32;20130;-58
2022/06/17 03:00:05;;;;;;;7.00;3.53;;;11.80;99.90;;;;;;7338360;32;20343;-58
2022/06/17 03:04:15;;;;;;;4.80;3.35;;;11.80;99.90;;;;;;7338532;32;20210;-60
2022/06/17 03:08:23;;;;;;;5.07;3.40;;;11.70;99.90;;;;;;7339797;32;20277;-59
2022/06/17 03:12:28;;;;;;;4.53;3.30;;;11.80;99.90;;;;;;7338687;32;20858;-58
2022/06/17 03:16:30;;;;;;;4.47;3.12;;;11.70;99.90;;;;;;7343949;32;20521;-60
2022/06/17 03:20:34;;;;;;;3.55;3.08;;;11.70;99.90;;;;;;7337736;32;20579;-59
2022/06/17 03:24:44;;;;;;;6.15;3.12;;;11.60;99.90;;;;;;7343330;32;20140;-59
2022/06/17 03:28:54;;;;;;;4.93;3.05;;;11.60;99.90;;;;;;7335678;32;20115;-61
2022/06/17 03:33:04;;;;;;;9.13;3.28;;;11.50;99.90;;;;;;7346859;32;20137;-59
2022/06/17 03:37:24;;;;;;;5.68;3.33;;;11.50;99.90;;;;;;7351186;32;20134;-60
2022/06/17 03:41:45;;;;;;;6.72;3.33;;;11.50;99.90;;;;;;7348036;32;20232;-60
2022/06/17 03:46:04;;;;;;;5.05;3.70;;;11.50;99.90;;;;;;7344749;32;20129;-60
2022/06/17 03:50:08;;;;;;;6.45;3.78;;;11.50;99.90;;;;;;7342069;32;20209;-61
2022/06/17 03:54:13;;;;;;;5.60;3.10;;;11.40;99.90;;;;;;7346144;32;20244;-59
2022/06/17 03:58:17;;;;;;;5.18;3.22;;;11.40;99.90;;;;;;7340027;32;20134;-59
2022/06/17 04:02:20;;;;;;;4.43;3.22;;;11.40;99.90;;;;;;7345624;32;20111;-59
2022/06/17 04:06:25;;;;;;;4.55;3.12;;;11.40;99.90;;;;;;7337640;32;20133;-59
2022/06/17 04:10:30;;;;;;;4.28;3.03;;;11.40;99.90;;;;;;7342146;32;20256;-60
2022/06/17 04:14:59;;;;;;;4.32;3.25;;;11.40;99.90;;;;;;7347426;32;20237;-60
2022/06/17 04:19:12;;;;;;;5.78;3.62;;;11.50;99.90;;;;;;7349337;32;20178;-59
2022/06/17 04:23:17;;;;;;;8.23;3.00;;;11.50;99.90;;;;;;7350207;32;20606;-59
2022/06/17 04:27:20;;;;;;;3.58;3.03;;;11.40;99.90;;;;;;7343933;32;20115;-59
2022/06/17 04:31:26;;;;;;;4.22;3.55;;;11.50;99.90;;;;;;7351087;32;20544;-59
2022/06/17 04:35:28;;;;;;;5.15;3.20;;;11.50;99.90;;;;;;7351443;32;20148;-59
2022/06/17 04:39:46;;;;;;;4.90;3.30;;;11.50;99.90;;;;;;7345717;32;20130;-59
2022/06/17 04:43:53;;;;;;;4.53;3.42;;;11.70;99.90;;;;;;7351593;32;20978;-60
2022/06/17 04:47:56;;;;;;;4.03;3.35;;;11.90;99.90;;;;;;7346186;32;20107;-62
2022/06/17 04:52:05;;;;;;;6.07;2.97;;;12.40;99.90;;;;;;7349826;32;20527;-62
2022/06/17 04:56:11;;;;;;;4.37;2.85;;;12.80;99.90;;;;;;7348765;32;20565;-63
2022/06/17 05:00:21;;;;;;;4.90;2.87;;;13.30;99.90;;;;;;7349120;32;20119;-62
2022/06/17 05:04:24;;;;;;;7.80;3.03;;;14.10;99.90;;;;;;7338216;32;20247;-62
2022/06/17 05:08:34;;;;;;;4.85;2.58;;;14.80;99.90;;;;;;7342690;32;20379;-62
2022/06/17 05:12:40;;;;;;;7.75;2.60;;;15.40;99.90;;;;;;7345109;32;20111;-62
2022/06/17 05:16:41;;;;;;;8.95;3.45;;;16.00;99.90;;;;;;7341963;32;20590;-62
2022/06/17 05:20:44;;;;;;;4.43;2.50;;;16.40;99.90;;;;;;7341998;32;20135;-62
2022/06/17 05:24:46;;;;;;;3.10;2.17;;;17.00;99.90;;;;;;7344700;32;20194;-62
2022/06/17 05:28:48;;;;;;;4.10;2.37;;;17.70;99.90;;;;;;7346279;32;20458;-62
2022/06/17 05:32:53;;;;;;;4.87;2.37;;;18.10;99.90;;;;;;7340821;32;20108;-63
2022/06/17 05:36:56;;;;;;;3.97;2.17;;;18.30;99.90;;;;;;7340824;32;21790;-64
2022/06/17 05:41:06;;;;;;;5.07;2.42;;;18.40;99.90;;;;;;7343366;32;20103;-63
2022/06/17 05:45:13;;;;;;;6.68;2.55;;;18.40;99.90;;;;;;7341345;32;20122;-63
2022/06/17 05:49:15;;;;;;;7.93;2.35;;;19.00;99.90;;;;;;7339111;32;20616;-63
2022/06/17 05:53:17;;;;;;;5.57;1.92;;;19.80;99.90;;;;;;7334821;32;20927;-63
2022/06/17 05:57:20;;;;;;;5.65;2.00;;;20.50;99.90;;;;;;7339201;32;20495;-63
2022/06/17 06:01:22;;;;;;;4.37;1.83;;;21.10;99.90;;;;;;7340283;32;20119;-63
2022/06/17 06:05:25;;;;;;;3.60;1.95;;;20.50;99.90;;;;;;7345544;32;20221;-65
2022/06/17 06:09:27;;;;;;;3.12;1.80;;;19.90;99.90;;;;;;7342777;32;20187;-64
2022/06/17 06:13:29;;;;;;;3.95;1.75;;;19.50;99.90;;;;;;7342022;32;20292;-63
2022/06/17 06:17:30;;;;;;;3.28;1.83;;;19.00;99.90;;;;;;7344307;32;20111;-63
2022/06/17 06:21:32;;;;;;;4.25;2.00;;;18.90;99.90;;;;;;7342922;32;21033;-64
2022/06/17 06:25:34;;;;;;;4.70;1.85;;;18.70;99.90;;;;;;7338554;32;20107;-63
2022/06/17 06:29:36;;;;;;;3.72;1.60;;;18.60;99.90;;;;;;7336758;32;20103;-62
2022/06/17 06:33:40;;;;;;;4.10;1.95;;;18.70;99.90;;;;;;7337008;32;20115;-59
2022/06/17 06:37:42;;;;;;;4.55;2.25;;;18.70;99.90;;;;;;7337024;32;20122;-59
2022/06/17 06:41:43;;;;;;;4.00;2.20;;;18.90;99.90;;;;;;7336036;32;20150;-60
2022/06/17 06:45:48;;;;;;;4.70;1.85;;;19.10;99.90;;;;;;7341103;32;20765;-60
2022/06/17 06:49:50;;;;;;;3.65;1.75;;;19.30;99.90;;;;;;7341587;32;20497;-61
2022/06/17 06:53:51;;;;;;;7.12;1.80;;;19.40;99.90;;;;;;7340507;32;20257;-65
2022/06/17 06:58:01;;;;;;;3.30;2.08;;;19.60;99.90;;;;;;7338914;32;20142;-64
2022/06/17 07:02:03;;;;;;;3.60;1.70;;;19.80;99.90;;;;;;7338230;32;20111;-63
2022/06/17 07:06:05;;;;;;;6.05;1.77;;;19.90;99.90;;;;;;7343395;32;20162;-63
2022/06/17 07:10:10;;;;;;;3.80;1.35;;;20.20;99.90;;;;;;7340987;32;20119;-63
2022/06/17 07:14:12;;;;;;;3.67;2.10;;;20.30;99.90;;;;;;7341782;32;20601;-63
2022/06/17 07:18:22;;;;;;;4.12;1.67;;;20.40;99.90;;;;;;7341026;32;20129;-64
2022/06/17 07:22:24;;;;;;;4.15;1.50;;;20.60;99.90;;;;;;7343624;32;20190;-64
2022/06/17 07:26:27;;;;;;;6.53;1.90;;;20.80;99.90;;;;;;7339672;32;20115;-64
2022/06/17 07:30:31;;;;;;;4.43;1.45;;;20.90;99.90;;;;;;7342011;32;20111;-59
2022/06/17 07:34:33;;;;;;;3.47;1.48;;;21.10;99.90;;;;;;7339095;32;20202;-63
2022/06/17 07:42:59;;;;;;;2.95;1.42;;;21.20;99.90;;;;;;7333571;32;20137;-59
2022/06/17 07:47:01;;;;;;;5.28;1.48;;;21.40;99.90;;;;;;7336545;32;20205;-60
2022/06/17 07:51:03;;;;;;;5.68;1.50;;;21.50;99.90;;;;;;7338346;32;20111;-60
2022/06/17 07:55:06;;;;;;;2.65;1.40;;;21.60;99.90;;;;;;7342709;32;20260;-60
2022/06/17 07:59:14;;;;;;;4.47;1.27;;;21.70;99.90;;;;;;7334930;32;20861;-61
2022/06/17 08:03:18;;;;;;;6.62;1.67;;;21.90;99.90;;;;;;7342391;32;20527;-65
2022/06/17 08:07:20;;;;;;;2.67;1.33;;;22.10;99.90;;;;;;7340307;32;20544;-64
2022/06/17 08:11:22;;;;;;;5.82;1.60;;;22.30;99.90;;;;;;7340327;32;20127;-64
2022/06/17 08:15:24;;;;;;;3.65;1.37;;;22.50;99.90;;;;;;7341826;32;20186;-64
2022/06/17 08:19:26;;;;;;;6.12;1.83;;;22.60;99.90;;;;;;7342171;32;20111;-64
2022/06/17 08:23:27;;;;;;;4.50;1.55;;;22.80;99.90;;;;;;7344756;32;20107;-64
2022/06/17 08:27:29;;;;;;;4.25;1.40;;;22.80;99.90;;;;;;7341179;32;20125;-63
2022/06/17 08:31:31;;;;;;;4.50;1.90;;;23.10;99.90;;;;;;7345618;32;20154;-63
2022/06/17 08:35:35;;;;;;;6.05;1.67;;;23.50;99.90;;;;;;7340387;32;20226;-64
2022/06/17 08:39:37;;;;;;;1.77;1.15;;;23.60;99.90;;;;;;7346026;32;20134;-64
2022/06/17 08:43:58;;;;;;;4.85;1.37;;;23.70;98.70;;;;;;7348736;32;20150;-65
2022/06/17 08:48:09;;;;;;;3.70;1.00;;;23.50;99.40;;;;;;7340698;32;20241;-67
2022/06/17 08:52:41;;;;;;;3.80;1.20;;;23.90;99.00;;;;;;7342575;32;20107;-63
2022/06/17 08:57:03;;;;;;;4.37;1.40;;;24.20;99.90;;;;;;7335242;32;20258;-62
2022/06/17 09:01:18;;;;;;;4.05;1.62;;;24.60;99.30;;;;;;7344421;32;21465;-66
2022/06/17 09:05:43;;;;;;;5.70;1.48;;;24.70;93.40;;;;;;7344605;32;20206;-66
2022/06/17 09:10:27;;;;;;;4.85;1.23;;;24.90;97.70;;;;;;7341362;32;20106;-63
2022/06/17 09:14:58;;;;;;;2.33;1.50;;;25.30;96.20;;;;;;7335654;32;20521;-63
2022/06/17 09:19:03;;;;;;;4.35;1.48;;;25.90;95.90;;;;;;7344786;32;20241;-63
2022/06/17 09:23:05;;;;;;;6.95;1.60;;;26.40;93.00;;;;;;7343473;32;20150;-63
2022/06/17 09:27:25;;;;;;;4.68;1.65;;;27.00;90.70;;;;;;7342547;32;20137;-64
2022/06/17 09:31:38;;;;;;;7.90;1.58;;;26.80;91.30;;;;;;7348259;32;20737;-63
2022/06/17 09:36:03;;;;;;;3.78;1.50;;;26.70;91.60;;;;;;7345666;32;20103;-63
2022/06/17 09:40:13;;;;;;;2.55;1.25;;;26.30;82.70;;;;;;7342186;32;20239;-63
2022/06/17 09:44:30;;;;;;;2.87;1.10;;;26.70;81.20;;;;;;7336125;32;20130;-64
2022/06/17 09:48:45;;;;;;;5.70;1.30;;;26.90;83.30;;;;;;7338059;32;20646;-63
2022/06/17 09:53:13;;;;;;;3.62;1.40;;;27.50;83.30;;;;;;7345065;32;20221;-64
2022/06/17 09:57:29;;;;;;;5.55;1.40;;;27.80;80.60;;;;;;7341546;32;20107;-64
2022/06/17 10:01:31;;;;;;;2.30;1.25;;;28.20;81.60;;;;;;7344246;32;20226;-64
2022/06/17 10:05:43;;;;;;;2.70;1.00;;;28.60;78.30;;;;;;7344411;32;20174;-64
2022/06/17 10:09:58;;;;;;;2.80;1.20;;;28.50;72.40;;;;;;7335995;32;20138;-63
2022/06/17 10:14:24;;;;;;;2.42;1.20;;;28.40;74.30;;;;;;7335377;32;20506;-64
2022/06/17 10:18:38;;;;;;;3.50;1.23;;;28.20;69.70;;;;;;7333245;32;20111;-64
2022/06/17 10:22:44;;;;;;;2.80;1.27;;;28.10;65.70;;;;;;7335884;32;20115;-63
2022/06/17 10:27:15;;;;;;;5.07;1.33;;;28.30;70.50;;;;;;7349476;32;20119;-64
2022/06/17 10:31:40;;;;;;;2.28;1.10;;;28.10;66.20;;;;;;7348123;32;20440;-63
2022/06/17 10:35:45;;;;;;;4.62;1.37;;;28.10;69.80;;;;;;7338428;32;20130;-64
2022/06/17 10:39:47;;;;;;;3.03;1.10;;;28.20;70.90;;;;;;7336050;32;20226;-64
2022/06/17 10:43:54;;;;;;;2.65;1.00;;;28.40;68.20;;;;;;7341537;32;20215;-63
2022/06/17 10:48:10;;;;;;;3.95;1.10;;;28.70;70.70;;;;;;7346178;32;20214;-64
2022/06/17 10:52:24;;;;;;;2.60;1.10;;;28.90;68.50;;;;;;7343257;32;20133;-64
2022/06/17 10:56:39;;;;;;;1.70;1.00;;;28.80;66.60;;;;;;7336510;32;20260;-64
2022/06/17 11:01:02;;;;;;;1.77;1.15;;;28.80;64.00;;;;;;7340806;32;20120;-64
2022/06/17 11:05:06;;;;;;;2.80;1.10;;;28.80;66.20;;;;;;7326577;32;20183;-64
2022/06/17 11:09:20;;;;;;;4.70;1.02;;;28.40;59.20;;;;;;7341155;32;20111;-63
2022/06/17 11:13:22;;;;;;;2.00;0.98;;;28.20;64.10;;;;;;7341883;32;20129;-63
2022/06/17 11:17:40;;;;;;;4.30;2.60;;;28.20;64.50;;;;;;7341421;32;20112;-62
2022/06/17 11:21:50;;;;;;;6.45;1.35;;;28.10;63.80;;;;;;7340415;32;20139;-57
2022/06/17 11:26:17;;;;;;;2.42;1.30;;;27.90;65.30;;;;;;7334220;32;20156;-65
2022/06/17 11:30:18;;;;;;;3.40;1.00;;;28.00;66.10;;;;;;7339694;32;20202;-63
2022/06/17 11:34:26;;;;;;;3.35;1.10;;;27.90;70.90;;;;;;7342748;32;20111;-62
2022/06/17 11:38:32;;;;;;;5.43;1.40;;;28.10;70.30;;;;;;7341295;32;20194;-63
2022/06/17 11:42:58;;;;;;;4.10;1.25;;;28.10;68.10;;;;;;7343341;32;20562;-63
2022/06/17 11:47:02;;;;;;;2.35;1.00;;;27.80;61.60;;;;;;7343375;32;20140;-63
2022/06/17 11:51:07;;;;;;;1.40;0.93;;;27.90;65.90;;;;;;7348636;32;20111;-63
2022/06/17 11:55:09;;;;;;;2.85;1.20;;;28.10;63.10;;;;;;7350537;32;20598;-63
2022/06/17 11:59:21;;;;;;;5.28;1.23;;;28.40;64.90;;;;;;7347624;32;20252;-62
2022/06/17 12:03:42;;;;;;;3.72;1.42;;;28.40;64.20;;;;;;7341653;32;20112;-63
2022/06/17 12:08:02;;;;;;;4.93;1.00;;;28.60;63.60;;;;;;7346828;32;20206;-63
2022/06/17 12:12:13;;;;;;;10.95;1.40;;;28.70;58.20;;;;;;7348610;32;20145;-63
2022/06/17 12:16:23;;;;;;;5.90;2.67;;;28.70;58.80;;;;;;7332155;32;20126;-69
2022/06/17 12:20:40;;;;;;;2.85;1.12;;;29.00;64.00;;;;;;7344475;32;20309;-67
2022/06/17 12:25:16;;;;;;;2.80;1.02;;;29.20;63.00;;;;;;7344415;32;20257;-66
2022/06/17 12:29:31;;;;;;;3.42;1.00;;;29.30;59.00;;;;;;7345522;32;20573;-67
2022/06/17 12:33:46;;;;;;;1.98;0.95;;;29.30;60.30;;;;;;7343981;32;20812;-67
2022/06/17 12:38:07;;;;;;;4.62;1.00;;;29.40;55.10;;;;;;7342981;32;20247;-66
2022/06/17 12:42:24;;;;;;;3.17;0.95;;;29.40;55.80;;;;;;7344586;32;21223;-67
2022/06/17 12:46:48;;;;;;;2.55;0.90;;;29.30;54.70;;;;;;7344030;32;20416;-64
2022/06/17 12:56:11;;;;;;;3.45;0.85;;;29.30;57.60;;;;;;7342716;32;20226;-63
2022/06/17 13:00:23;;;;;;;1.67;0.80;;;29.60;53.90;;;;;;7332912;32;20226;-65
2022/06/17 13:04:47;;;;;;;2.80;0.95;;;29.30;52.00;;;;;;7342051;32;20156;-66
2022/06/17 13:09:12;;;;;;;4.95;1.10;;;29.20;52.40;;;;;;7341260;32;20209;-67
2022/06/17 13:13:38;;;;;;;2.65;1.10;;;29.10;53.60;;;;;;7343989;32;20131;-67
2022/06/17 13:17:58;;;;;;;4.50;1.02;;;29.10;54.30;;;;;;7342785;32;20125;-66
2022/06/17 13:22:18;;;;;;;3.78;0.80;;;29.20;52.90;;;;;;7343592;32;20103;-66
2022/06/17 13:26:24;;;;;;;4.60;0.80;;;29.40;52.60;;;;;;7341506;32;20099;-66
2022/06/17 13:30:32;;;;;;;2.03;1.00;;;29.30;53.10;;;;;;7346350;32;20122;-67
2022/06/17 13:34:49;;;;;;;7.03;1.12;;;29.50;53.70;;;;;;7340688;32;20186;-67
2022/06/17 13:38:56;;;;;;;4.55;1.05;;;29.70;55.80;;;;;;7340775;32;20107;-65
2022/06/17 13:43:04;;;;;;;3.30;1.00;;;29.60;53.60;;;;;;7344234;32;20214;-68
2022/06/17 13:47:43;;;;;;;3.05;0.90;;;29.60;53.90;;;;;;7339128;32;20290;-66
2022/06/17 13:51:57;;;;;;;2.70;1.00;;;29.70;56.40;;;;;;7338178;32;20485;-65
2022/06/17 13:56:08;;;;;;;3.05;1.00;;;29.80;53.80;;;;;;7342131;32;20624;-66
2022/06/17 14:00:25;;;;;;;5.57;1.27;;;29.90;56.20;;;;;;7340047;32;20107;-65
2022/06/17 14:04:26;;;;;;;4.12;1.10;;;30.00;54.50;;;;;;7340797;32;20117;-65
2022/06/17 14:08:50;;;;;;;7.50;1.20;;;30.00;52.60;;;;;;7342823;32;20107;-67
2022/06/17 14:13:20;;;;;;;5.15;0.90;;;30.00;51.50;;;;;;7341285;32;20142;-66
2022/06/17 14:17:22;;;;;;;1.73;1.00;;;29.80;54.80;;;;;;7342555;32;20127;-66
2022/06/17 14:21:34;;;;;;;2.15;0.88;;;29.80;53.30;;;;;;7340625;32;20238;-66
2022/06/17 14:25:47;;;;;;;3.22;0.80;;;29.70;53.90;;;;;;7340966;32;20120;-67
2022/06/17 14:30:11;;;;;;;3.17;1.00;;;29.50;54.10;;;;;;7337635;32;21428;-66
2022/06/17 14:34:16;;;;;;;1.77;0.80;;;29.40;54.20;;;;;;7331926;32;20719;-66
2022/06/17 14:38:24;;;;;;;31.35;1.62;;;29.40;55.20;;;;;;7341179;32;20141;-66
2022/06/17 14:42:30;;;;;;;5.62;1.02;;;29.50;54.20;;;;;;7340461;32;20231;-66
2022/06/17 14:47:10;;;;;;;3.62;0.82;;;29.70;56.20;;;;;;7339805;32;20903;-68
2022/06/17 14:51:33;;;;;;;4.00;0.98;;;29.80;54.60;;;;;;7336564;32;20586;-67
2022/06/17 14:55:38;;;;;;;5.82;1.12;;;29.70;52.70;;;;;;7343359;32;20099;-67
2022/06/17 14:59:41;;;;;;;4.40;1.20;;;29.70;54.50;;;;;;7345353;32;20123;-67
2022/06/17 15:03:43;;;;;;;2.78;1.30;;;29.70;54.90;;;;;;7345609;32;20710;-66
2022/06/17 15:07:50;;;;;;;3.05;1.05;;;29.70;55.30;;;;;;7336089;32;20218;-67
2022/06/17 15:12:11;;;;;;;6.30;1.17;;;29.70;55.90;;;;;;7342288;32;20479;-66
2022/06/17 15:16:20;;;;;;;3.50;0.98;;;29.60;54.20;;;;;;7341578;32;20107;-64
2022/06/17 15:20:24;;;;;;;2.17;0.93;;;29.60;54.50;;;;;;7333602;32;21307;-68
2022/06/17 15:24:43;;;;;;;3.25;1.17;;;29.50;55.20;;;;;;7341153;32;20103;-64
2022/06/17 15:28:48;;;;;;;2.95;0.95;;;29.40;54.50;;;;;;7341090;32;20099;-66
2022/06/17 15:32:54;;;;;;;2.65;0.98;;;29.40;54.20;;;;;;7345829;32;20115;-65
2022/06/17 15:36:57;;;;;;;1.95;0.98;;;29.30;55.30;;;;;;7331864;32;20248;-65
2022/06/17 15:41:15;;;;;;;3.55;1.00;;;29.30;55.40;;;;;;7338151;32;20118;-65
2022/06/17 15:45:17;;;;;;;4.72;1.23;;;29.20;56.60;;;;;;7345659;32;20111;-64
2022/06/17 15:49:26;;;;;;;4.93;1.17;;;29.20;58.20;;;;;;7344617;32;20555;-63
2022/06/17 15:53:38;;;;;;;5.20;1.30;;;29.10;57.10;;;;;;7341245;32;20118;-66
2022/06/17 15:57:50;;;;;;;5.75;1.10;;;29.20;56.10;;;;;;7339874;32;20190;-66
2022/06/17 16:01:59;;;;;;;4.93;1.20;;;29.20;56.00;;;;;;7349468;32;20103;-68
2022/06/17 16:06:05;;;;;;;3.30;1.08;;;29.10;56.50;;;;;;7346289;32;20613;-67
2022/06/17 16:10:21;;;;;;;2.40;0.90;;;29.10;56.30;;;;;;7339805;32;20204;-66
2022/06/17 16:14:32;;;;;;;7.37;1.33;;;28.90;57.00;;;;;;7348758;32;20185;-68
2022/06/17 16:18:40;;;;;;;2.97;1.20;;;29.00;56.30;;;;;;7342051;32;21320;-66
2022/06/17 16:22:42;;;;;;;6.32;1.20;;;29.00;57.10;;;;;;7335978;32;20214;-67
2022/06/17 16:26:48;;;;;;;5.35;1.50;;;29.00;55.50;;;;;;7340761;32;20456;-68
2022/06/17 16:30:55;;;;;;;4.33;1.10;;;28.80;57.30;;;;;;7343916;32;20224;-67
2022/06/17 16:34:58;;;;;;;2.97;1.17;;;28.70;57.70;;;;;;7340884;32;20749;-67
2022/06/17 16:39:04;;;;;;;6.22;1.20;;;28.80;56.70;;;;;;7340715;32;20206;-67
2022/06/17 16:47:59;;;;;;;13.37;1.10;;;28.50;59.10;;;;;;7342888;32;20211;-70
2022/06/17 16:52:13;;;;;;;8.10;1.20;;;28.40;58.50;;;;;;7343119;32;20697;-69
2022/06/17 16:56:29;;;;;;;4.75;1.40;;;28.30;59.00;;;;;;7347055;32;20715;-68
2022/06/17 17:00:33;;;;;;;7.60;1.12;;;28.40;58.00;;;;;;7338565;32;20099;-70
2022/06/17 17:04:35;;;;;;;6.90;1.05;;;28.50;56.40;;;;;;7343020;32;20237;-67
2022/06/17 17:08:37;;;;;;;3.15;1.10;;;28.60;56.40;;;;;;7345658;32;20220;-67
2022/06/17 17:12:39;;;;;;;6.97;1.80;;;28.60;55.80;;;;;;7344666;32;20208;-68
2022/06/17 17:16:42;;;;;;;14.68;1.60;;;28.50;55.50;;;;;;7340696;32;20213;-68
2022/06/17 17:20:49;;;;;;;6.35;1.45;;;28.50;57.60;;;;;;7341630;32;20157;-65
2022/06/17 17:24:53;;;;;;;;;;;28.40;56.70;;;;;;7339735;32;20916;-68
2022/06/17 17:28:56;;;;;;;4.45;1.30;;;28.30;56.90;;;;;;7344611;32;20042;-66
2022/06/17 17:32:58;;;;;;;10.07;1.25;;;28.30;56.90;;;;;;7346717;32;20510;-66
2022/06/17 17:37:00;;;;;;;7.53;1.12;;;28.20;56.80;;;;;;7342479;32;20205;-65
2022/06/17 17:45:26;;;;;;;3.28;1.00;;;27.90;58.60;;;;;;7346752;32;20633;-65
2022/06/17 17:49:28;;;;;;;2.45;0.98;;;27.90;57.10;;;;;;7344223;32;20736;-65
2022/06/17 17:53:29;;;;;;;5.32;0.95;;;27.70;59.10;;;;;;7342974;32;20127;-69
2022/06/17 17:57:31;;;;;;;3.03;1.30;;;27.80;57.20;;;;;;7346503;32;20699;-65
2022/06/17 18:01:43;;;;;;;2.55;0.93;;;27.70;59.20;;;;;;7338500;32;20245;-67
2022/06/17 18:05:45;;;;;;;3.12;0.88;;;27.60;58.70;;;;;;7343012;32;20306;-65
2022/06/17 18:09:48;;;;;;;3.72;1.00;;;27.50;59.60;;;;;;7342228;32;20123;-68
2022/06/17 18:13:51;;;;;;;2.92;0.82;;;27.50;60.20;;;;;;7339256;32;20214;-66
2022/06/17 18:17:55;;;;;;;2.55;1.23;;;27.40;61.10;;;;;;7342781;32;20389;-64
2022/06/17 18:21:59;;;;;;;2.72;0.90;;;27.30;64.70;;;;;;7336060;32;20126;-65
2022/06/17 18:26:01;;;;;;;6.10;1.08;;;27.30;62.70;;;;;;7339398;32;20166;-64
2022/06/17 18:30:05;;;;;;;2.97;1.05;;;27.20;62.50;;;;;;7335764;32;20557;-65
2022/06/17 18:34:07;;;;;;;2.92;1.23;;;27.10;63.90;;;;;;7343415;32;20316;-66
2022/06/17 18:38:10;;;;;;;4.10;1.23;;;27.00;65.00;;;;;;7342729;32;20126;-67
2022/06/17 18:46:35;;;;;;;5.40;1.55;;;26.50;85.60;;;;;;7345170;32;20213;-67
2022/06/17 18:50:40;;;;;;;4.65;1.55;;;26.30;92.30;;;;;;7354143;32;20193;-66
2022/06/17 18:54:42;;;;;;;16.55;10.57;;;26.10;96.90;;;;;;7344506;32;20103;-66
2022/06/17 18:58:47;;;;;;;5.82;2.72;;;25.80;99.90;;;;;;7348500;32;20528;-69
2022/06/17 19:02:52;;;;;;;8.05;1.83;;;25.40;99.90;;;;;;7344209;32;20159;-65
2022/06/17 19:06:54;;;;;;;5.35;1.55;;;25.10;99.90;;;;;;7341714;32;20218;-65
2022/06/17 19:19:40;;;;;;;9.75;2.40;;;24.30;99.90;;;;;;7341230;32;20131;-65
2022/06/17 19:23:43;;;;;;;8.27;2.83;;;24.00;99.90;;;;;;7345136;32;20126;-66
2022/06/17 19:27:49;;;;;;;11.85;2.20;;;23.80;99.90;;;;;;7341262;32;21061;-65
2022/06/17 19:31:53;;;;;;;6.25;3.22;;;23.70;99.90;;;;;;7342135;32;20230;-64
2022/06/17 19:36:01;;;;;;;18.55;7.78;;;23.30;99.90;;;;;;7339250;32;20636;-66
2022/06/17 19:40:04;;;;;;;10.55;2.40;;;23.00;99.90;;;;;;7348059;32;20213;-65
2022/06/17 19:44:07;;;;;;;6.47;2.50;;;22.80;99.90;;;;;;7341701;32;20194;-66
2022/06/17 19:48:20;;;;;;;3.72;2.05;;;22.60;99.90;;;;;;7344703;32;20111;-65
2022/06/17 19:52:24;;;;;;;4.07;1.80;;;22.30;99.90;;;;;;7337410;32;20264;-65
2022/06/17 19:56:28;;;;;;;7.40;2.08;;;22.10;99.90;;;;;;7329499;32;20110;-66
2022/06/17 20:00:30;;;;;;;2.90;2.00;;;21.90;99.90;;;;;;7341045;32;20183;-65
2022/06/17 20:04:33;;;;;;;3.85;1.90;;;21.70;99.90;;;;;;7334483;32;20958;-62
2022/06/17 20:08:35;;;;;;;12.00;2.05;;;21.50;99.90;;;;;;7336768;32;20126;-62
2022/06/17 20:12:37;;;;;;;8.70;2.25;;;21.30;99.90;;;;;;7340788;32;20103;-62
2022/06/17 20:16:39;;;;;;;10.55;2.60;;;21.10;99.90;;;;;;7342770;32;20134;-62
2022/06/17 20:20:40;;;;;;;6.70;2.22;;;21.00;99.90;;;;;;7337402;32;20203;-62
2022/06/17 20:24:46;;;;;;;6.57;2.12;;;20.80;99.90;;;;;;7342436;32;20632;-62
2022/06/17 20:28:47;;;;;;;7.18;4.03;;;20.60;99.90;;;;;;7344962;32;20161;-62
2022/06/17 20:32:49;;;;;;;9.00;5.62;;;20.50;99.90;;;;;;7340339;32;20325;-61
2022/06/17 20:36:52;;;;;;;6.25;2.50;;;20.30;99.90;;;;;;7340707;32;20522;-61
2022/06/17 20:40:54;;;;;;;7.35;2.12;;;20.20;99.90;;;;;;7337856;32;20552;-63
2022/06/17 20:53:38;;;;;;;6.22;2.20;;;19.90;99.90;;;;;;7342808;32;20765;-63
2022/06/17 21:02:00;;;;;;;8.48;2.72;;;19.60;99.90;;;;;;7342251;32;20143;-62
2022/06/17 21:06:04;;;;;;;4.07;2.40;;;19.50;99.90;;;;;;7340218;32;20434;-63
2022/06/17 21:10:20;;;;;;;5.90;3.10;;;19.40;99.90;;;;;;7339566;32;20111;-63
2022/06/17 21:14:22;;;;;;;6.12;2.65;;;19.20;99.90;;;;;;7348617;32;20230;-63
2022/06/17 21:18:25;;;;;;;6.50;2.62;;;19.20;99.90;;;;;;7340265;32;20114;-62
2022/06/17 21:22:35;;;;;;;5.70;2.90;;;19.00;99.90;;;;;;7346661;32;20381;-62
2022/06/17 21:26:36;;;;;;;7.30;2.42;;;18.90;99.90;;;;;;7341707;32;20124;-62
2022/06/17 21:30:38;;;;;;;9.98;2.70;;;18.90;99.90;;;;;;7346174;32;20135;-63
2022/06/17 21:34:40;;;;;;;5.90;2.42;;;18.80;99.90;;;;;;7320181;32;20290;-62
2022/06/17 21:38:57;;;;;;;3.00;2.40;;;18.70;99.90;;;;;;7339994;32;20619;-65
2022/06/17 21:42:59;;;;;;;6.07;3.08;;;18.60;99.90;;;;;;7325026;32;20722;-63
2022/06/17 21:47:01;;;;;;;7.32;3.17;;;18.60;99.90;;;;;;7343250;32;20222;-61
2022/06/17 21:51:07;;;;;;;6.85;2.80;;;18.50;99.90;;;;;;7345380;32;20205;-63
2022/06/17 21:55:26;;;;;;;5.72;2.62;;;18.40;99.90;;;;;;7343660;32;20180;-63
2022/06/17 21:59:30;;;;;;;4.45;2.30;;;18.30;99.90;;;;;;7343764;32;20154;-63
2022/06/17 22:03:32;;;;;;;3.80;2.92;;;18.20;99.90;;;;;;7342835;32;20183;-62
2022/06/17 22:07:34;;;;;;;8.50;2.90;;;18.10;99.90;;;;;;7340235;32;20534;-63
2022/06/17 22:15:56;;;;;;;12.30;3.35;;;18.00;99.90;;;;;;7340205;32;20129;-62
2022/06/17 22:19:58;;;;;;;4.53;2.70;;;17.90;99.90;;;;;;7345634;32;20114;-61
2022/06/17 22:24:00;;;;;;;5.68;2.90;;;17.90;99.90;;;;;;7350709;32;20538;-62
2022/06/17 22:28:01;;;;;;;3.05;2.40;;;17.80;99.90;;;;;;7340951;32;20252;-62